createdAt,value
2023-05-06T00:00:51.069Z,0.00
2023-05-06T00:01:51.051Z,0.00
2023-05-06T00:02:51.108Z,0.00
2023-05-06T00:03:51.187Z,0.00
2023-05-06T00:04:51.151Z,0.00
2023-05-06T00:05:51.017Z,0.00
2023-05-06T00:06:50.984Z,0.00
2023-05-06T00:07:51.000Z,0.00
2023-05-06T00:08:51.012Z,0.00
2023-05-06T00:09:51.111Z,0.00
2023-05-06T00:10:50.947Z,0.00
2023-05-06T00:11:50.941Z,0.00
2023-05-06T00:12:50.999Z,0.00
2023-05-06T00:13:50.908Z,0.00
2023-05-06T00:14:50.892Z,0.00
2023-05-06T00:15:50.901Z,0.00
2023-05-06T00:16:50.872Z,0.00
2023-05-06T00:17:50.936Z,0.00
2023-05-06T00:18:50.853Z,0.00
2023-05-06T00:19:50.853Z,0.00
2023-05-06T00:20:50.852Z,0.00
2023-05-06T00:21:50.843Z,0.00
2023-05-06T00:22:50.825Z,0.00
2023-05-06T00:23:50.817Z,0.00
2023-05-06T00:24:50.800Z,0.00
2023-05-06T00:25:50.794Z,0.00
2023-05-06T00:26:50.773Z,0.00
2023-05-06T00:27:50.748Z,0.00
2023-05-06T00:28:50.741Z,0.00
2023-05-06T00:29:50.724Z,0.00
2023-05-06T00:30:50.743Z,0.00
2023-05-06T00:31:50.776Z,0.00
2023-05-06T00:32:50.768Z,0.00
2023-05-06T00:33:50.694Z,0.00
2023-05-06T00:34:50.665Z,0.00
2023-05-06T00:35:50.659Z,0.00
2023-05-06T00:36:50.660Z,0.00
2023-05-06T00:37:50.637Z,0.00
2023-05-06T00:38:50.650Z,0.00
2023-05-06T00:39:50.620Z,0.00
2023-05-06T00:40:50.611Z,0.00
2023-05-06T00:41:50.704Z,0.00
2023-05-06T00:42:50.608Z,0.00
2023-05-06T00:43:50.569Z,0.00
2023-05-06T00:44:50.577Z,0.00
2023-05-06T00:45:50.604Z,0.00
2023-05-06T00:46:50.562Z,0.00
2023-05-06T00:47:50.613Z,0.00
2023-05-06T00:48:50.511Z,0.00
2023-05-06T00:49:50.519Z,0.00
2023-05-06T00:50:50.492Z,0.00
2023-05-06T00:51:50.496Z,0.00
2023-05-06T00:52:50.476Z,0.00
2023-05-06T00:53:50.472Z,0.00
2023-05-06T00:54:50.453Z,0.00
2023-05-06T00:55:50.435Z,0.00
2023-05-06T00:56:50.459Z,0.00
2023-05-06T00:57:50.449Z,0.00
2023-05-06T00:58:50.431Z,0.00
2023-05-06T00:59:50.411Z,0.00
2023-05-06T01:00:50.434Z,0.00
2023-05-06T01:01:50.383Z,0.00
2023-05-06T01:02:50.479Z,0.00
2023-05-06T01:03:50.456Z,0.00
2023-05-06T01:04:50.416Z,0.00
2023-05-06T01:05:50.342Z,0.00
2023-05-06T01:06:50.316Z,0.00
2023-05-06T01:07:50.315Z,0.00
2023-05-06T01:08:50.304Z,0.00
2023-05-06T01:09:50.300Z,0.00
2023-05-06T01:10:50.299Z,0.00
2023-05-06T01:11:50.272Z,0.00
2023-05-06T01:12:50.309Z,0.00
2023-05-06T01:13:50.285Z,0.00
2023-05-06T01:14:50.255Z,0.00
2023-05-06T01:15:50.242Z,0.00
2023-05-06T01:16:50.228Z,0.00
2023-05-06T01:17:50.231Z,0.00
2023-05-06T01:18:50.217Z,0.00
2023-05-06T01:19:50.181Z,0.00
2023-05-06T01:20:50.176Z,0.00
2023-05-06T01:21:50.151Z,0.00
2023-05-06T01:22:50.147Z,0.00
2023-05-06T01:23:50.149Z,0.00
2023-05-06T01:24:50.140Z,0.00
2023-05-06T01:25:50.126Z,0.00
2023-05-06T01:26:50.112Z,0.00
2023-05-06T01:27:50.106Z,0.00
2023-05-06T01:28:50.087Z,0.00
2023-05-06T01:29:50.261Z,0.00
2023-05-06T01:30:50.159Z,0.00
2023-05-06T01:31:50.112Z,0.00
2023-05-06T01:32:50.057Z,0.00
2023-05-06T01:33:50.028Z,0.00
2023-05-06T01:34:50.019Z,0.00
2023-05-06T01:35:50.008Z,0.00
2023-05-06T01:36:49.998Z,0.00
2023-05-06T01:37:49.976Z,0.00
2023-05-06T01:38:49.964Z,0.00
2023-05-06T01:39:49.970Z,0.00
2023-05-06T01:40:49.963Z,0.00
2023-05-06T01:41:49.966Z,0.00
2023-05-06T01:42:49.932Z,0.00
2023-05-06T01:43:49.932Z,0.00
2023-05-06T01:44:49.916Z,0.00
2023-05-06T01:45:49.961Z,0.00
2023-05-06T01:46:49.948Z,0.00
2023-05-06T01:47:49.914Z,0.00
2023-05-06T01:48:49.878Z,0.00
2023-05-06T01:49:49.868Z,0.00
2023-05-06T01:50:49.831Z,0.00
2023-05-06T01:51:49.816Z,0.00
2023-05-06T01:52:49.810Z,0.00
2023-05-06T01:53:49.815Z,0.00
2023-05-06T01:54:49.788Z,0.00
2023-05-06T01:55:49.785Z,0.00
2023-05-06T01:56:49.797Z,0.00
2023-05-06T01:57:49.773Z,0.00
2023-05-06T01:58:49.735Z,0.00
2023-05-06T01:59:49.745Z,0.00
2023-05-06T02:00:49.740Z,0.00
2023-05-06T02:01:49.922Z,0.00
2023-05-06T02:02:49.741Z,0.00
2023-05-06T02:03:49.849Z,0.00
2023-05-06T02:04:49.677Z,0.00
2023-05-06T02:05:49.668Z,0.00
2023-05-06T02:06:49.676Z,0.00
2023-05-06T02:07:49.657Z,0.00
2023-05-06T02:08:49.646Z,0.00
2023-05-06T02:09:49.636Z,0.00
2023-05-06T02:10:49.649Z,0.00
2023-05-06T02:11:49.613Z,0.00
2023-05-06T02:12:49.629Z,0.00
2023-05-06T02:13:49.600Z,0.00
2023-05-06T02:14:49.594Z,0.00
2023-05-06T02:15:49.596Z,0.00
2023-05-06T02:16:49.540Z,0.00
2023-05-06T02:17:49.691Z,0.00
2023-05-06T02:18:49.528Z,0.00
2023-05-06T02:19:49.519Z,0.00
2023-05-06T02:20:49.496Z,0.00
2023-05-06T02:21:49.499Z,0.00
2023-05-06T02:22:49.477Z,0.00
2023-05-06T02:23:49.494Z,0.00
2023-05-06T02:24:49.457Z,0.00
2023-05-06T02:25:49.449Z,0.00
2023-05-06T02:26:49.429Z,0.00
2023-05-06T02:27:49.422Z,0.00
2023-05-06T02:28:49.430Z,0.00
2023-05-06T02:29:49.416Z,0.00
2023-05-06T02:30:49.386Z,0.00
2023-05-06T02:31:49.430Z,0.00
2023-05-06T02:32:49.473Z,0.00
2023-05-06T02:33:49.474Z,0.00
2023-05-06T02:34:49.361Z,0.00
2023-05-06T02:35:49.355Z,0.00
2023-05-06T02:36:49.328Z,0.00
2023-05-06T02:37:49.321Z,0.00
2023-05-06T02:38:49.312Z,0.00
2023-05-06T02:39:49.318Z,0.00
2023-05-06T02:40:49.288Z,0.00
2023-05-06T02:41:49.272Z,0.00
2023-05-06T02:42:49.337Z,0.00
2023-05-06T02:43:49.256Z,0.00
2023-05-06T02:44:49.247Z,0.00
2023-05-06T02:45:49.257Z,0.00
2023-05-06T02:46:49.228Z,0.00
2023-05-06T02:47:49.265Z,0.00
2023-05-06T02:48:49.187Z,0.00
2023-05-06T02:49:49.228Z,0.00
2023-05-06T02:50:49.161Z,0.00
2023-05-06T02:51:49.176Z,0.00
2023-05-06T02:52:49.153Z,0.00
2023-05-06T02:53:49.158Z,0.00
2023-05-06T02:54:49.137Z,0.00
2023-05-06T02:55:49.131Z,0.00
2023-05-06T02:56:49.121Z,0.00
2023-05-06T02:57:49.102Z,0.00
2023-05-06T02:58:49.071Z,0.00
2023-05-06T02:59:49.065Z,0.00
2023-05-06T03:00:49.153Z,0.00
2023-05-06T03:01:49.062Z,0.00
2023-05-06T03:02:49.064Z,0.00
2023-05-06T03:03:49.060Z,0.00
2023-05-06T03:04:49.024Z,0.00
2023-05-06T03:05:49.122Z,0.00
2023-05-06T03:06:49.023Z,0.00
2023-05-06T03:07:48.979Z,0.00
2023-05-06T03:08:48.984Z,0.00
2023-05-06T03:09:48.961Z,0.00
2023-05-06T03:10:48.950Z,0.00
2023-05-06T03:11:48.925Z,0.00
2023-05-06T03:12:48.966Z,0.00
2023-05-06T03:13:48.913Z,0.00
2023-05-06T03:14:48.922Z,0.00
2023-05-06T03:15:48.899Z,0.00
2023-05-06T03:16:48.920Z,0.00
2023-05-06T03:17:48.905Z,0.00
2023-05-06T03:18:48.848Z,0.00
2023-05-06T03:19:48.848Z,0.00
2023-05-06T03:20:48.828Z,0.00
2023-05-06T03:21:48.938Z,0.00
2023-05-06T03:22:48.824Z,0.00
2023-05-06T03:23:48.804Z,0.00
2023-05-06T03:24:48.791Z,0.00
2023-05-06T03:25:48.786Z,0.00
2023-05-06T03:26:48.777Z,0.00
2023-05-06T03:27:48.763Z,0.00
2023-05-06T03:28:48.751Z,0.00
2023-05-06T03:29:48.757Z,0.00
2023-05-06T03:30:48.736Z,0.00
2023-05-06T03:31:48.746Z,0.00
2023-05-06T03:32:48.824Z,0.00
2023-05-06T03:33:48.709Z,0.00
2023-05-06T03:34:48.705Z,0.00
2023-05-06T03:35:48.671Z,0.00
2023-05-06T03:36:48.691Z,0.00
2023-05-06T03:37:48.680Z,0.00
2023-05-06T03:38:48.660Z,0.00
2023-05-06T03:39:48.661Z,0.00
2023-05-06T03:40:48.613Z,0.00
2023-05-06T03:41:48.597Z,0.00
2023-05-06T03:42:48.605Z,0.00
2023-05-06T03:43:48.586Z,0.00
2023-05-06T03:44:48.578Z,0.00
2023-05-06T03:45:48.598Z,0.00
2023-05-06T03:46:48.552Z,0.00
2023-05-06T03:47:48.632Z,0.00
2023-05-06T03:48:48.535Z,0.00
2023-05-06T03:49:48.527Z,0.00
2023-05-06T03:50:48.521Z,0.00
2023-05-06T03:51:48.488Z,0.00
2023-05-06T03:52:48.484Z,0.00
2023-05-06T03:53:48.580Z,0.00
2023-05-06T03:54:48.472Z,0.00
2023-05-06T03:55:48.466Z,5.62
2023-05-06T03:56:48.425Z,5.62
2023-05-06T03:57:48.417Z,5.62
2023-05-06T03:58:48.419Z,5.62
2023-05-06T03:59:48.402Z,5.62
2023-05-06T04:00:48.399Z,5.62
2023-05-06T04:01:48.397Z,5.62
2023-05-06T04:02:48.416Z,11.25
2023-05-06T04:03:48.403Z,11.25
2023-05-06T04:04:48.372Z,11.25
2023-05-06T04:05:48.339Z,11.25
2023-05-06T04:06:48.350Z,11.25
2023-05-06T04:07:48.356Z,11.25
2023-05-06T04:08:48.308Z,16.88
2023-05-06T04:09:48.386Z,16.88
2023-05-06T04:10:48.304Z,16.88
2023-05-06T04:11:48.263Z,16.88
2023-05-06T04:12:48.289Z,16.88
2023-05-06T04:13:48.247Z,22.50
2023-05-06T04:14:48.242Z,22.50
2023-05-06T04:15:48.236Z,22.50
2023-05-06T04:16:48.233Z,22.50
2023-05-06T04:17:48.232Z,22.50
2023-05-06T04:18:48.180Z,28.12
2023-05-06T04:19:48.170Z,28.12
2023-05-06T04:20:48.177Z,28.12
2023-05-06T04:21:48.160Z,28.12
2023-05-06T04:22:48.145Z,33.75
2023-05-06T04:23:48.153Z,33.75
2023-05-06T04:24:48.121Z,33.75
2023-05-06T04:25:48.142Z,33.75
2023-05-06T04:26:48.106Z,33.75
2023-05-06T04:27:48.084Z,39.38
2023-05-06T04:28:48.082Z,39.38
2023-05-06T04:29:48.074Z,39.38
2023-05-06T04:30:48.058Z,39.38
2023-05-06T04:31:48.186Z,45.00
2023-05-06T04:32:48.128Z,45.00
2023-05-06T04:33:48.040Z,45.00
2023-05-06T04:34:48.022Z,45.00
2023-05-06T04:35:47.997Z,50.62
2023-05-06T04:36:48.009Z,50.62
2023-05-06T04:37:47.990Z,50.62
2023-05-06T04:38:47.972Z,50.62
2023-05-06T04:39:47.973Z,56.25
2023-05-06T04:40:47.976Z,56.25
2023-05-06T04:41:48.100Z,56.25
2023-05-06T04:42:47.939Z,56.25
2023-05-06T04:43:47.922Z,61.88
2023-05-06T04:44:47.904Z,61.88
2023-05-06T04:45:47.916Z,61.88
2023-05-06T04:46:47.926Z,61.88
2023-05-06T04:47:47.937Z,67.50
2023-05-06T04:48:47.863Z,67.50
2023-05-06T04:49:47.861Z,67.50
2023-05-06T04:50:47.847Z,67.50
2023-05-06T04:51:47.825Z,67.50
2023-05-06T04:52:47.818Z,67.50
2023-05-06T04:53:47.818Z,73.12
2023-05-06T04:54:47.812Z,73.12
2023-05-06T04:55:47.780Z,73.12
2023-05-06T04:56:47.776Z,73.12
2023-05-06T04:57:47.790Z,78.75
2023-05-06T04:58:47.764Z,78.75
2023-05-06T04:59:47.757Z,78.75
2023-05-06T05:00:47.723Z,78.75
2023-05-06T05:01:47.847Z,84.38
2023-05-06T05:02:47.917Z,84.38
2023-05-06T05:03:47.740Z,84.38
2023-05-06T05:04:47.746Z,84.38
2023-05-06T05:05:47.712Z,84.38
2023-05-06T05:06:47.684Z,90.00
2023-05-06T05:07:47.683Z,90.00
2023-05-06T05:08:47.671Z,90.00
2023-05-06T05:09:47.631Z,90.00
2023-05-06T05:10:47.653Z,90.00
2023-05-06T05:11:47.638Z,95.62
2023-05-06T05:12:47.686Z,95.62
2023-05-06T05:13:47.627Z,95.62
2023-05-06T05:14:47.581Z,95.62
2023-05-06T05:15:47.592Z,95.62
2023-05-06T05:16:47.577Z,95.62
2023-05-06T05:17:47.608Z,95.62
2023-05-06T05:18:57.857Z,101.25
2023-05-06T05:19:47.533Z,101.25
2023-05-06T05:20:47.520Z,101.25
2023-05-06T05:21:47.531Z,101.25
2023-05-06T05:22:47.491Z,101.25
2023-05-06T05:23:47.487Z,101.25
2023-05-06T05:24:47.480Z,106.88
2023-05-06T05:25:47.512Z,106.88
2023-05-06T05:26:47.479Z,106.88
2023-05-06T05:27:47.469Z,106.88
2023-05-06T05:28:47.437Z,106.88
2023-05-06T05:29:47.421Z,112.50
2023-05-06T05:30:47.498Z,112.50
2023-05-06T05:31:47.473Z,112.50
2023-05-06T05:32:47.456Z,112.50
2023-05-06T05:33:47.428Z,112.50
2023-05-06T05:34:47.364Z,112.50
2023-05-06T05:35:47.381Z,118.12
2023-05-06T05:36:47.354Z,118.12
2023-05-06T05:37:47.356Z,118.12
2023-05-06T05:38:47.318Z,118.12
2023-05-06T05:39:47.352Z,118.12
2023-05-06T05:40:47.314Z,118.12
2023-05-06T05:41:47.330Z,118.12
2023-05-06T05:42:47.277Z,118.12
2023-05-06T05:43:47.273Z,123.75
2023-05-06T05:44:47.245Z,123.75
2023-05-06T05:45:47.426Z,123.75
2023-05-06T05:46:47.261Z,123.75
2023-05-06T05:47:47.242Z,123.75
2023-05-06T05:48:47.212Z,123.75
2023-05-06T05:49:47.240Z,129.38
2023-05-06T05:50:47.198Z,129.38
2023-05-06T05:51:47.188Z,129.38
2023-05-06T05:52:47.229Z,129.38
2023-05-06T05:53:47.142Z,129.38
2023-05-06T05:54:47.181Z,129.38
2023-05-06T05:55:47.128Z,135.00
2023-05-06T05:56:47.126Z,135.00
2023-05-06T05:57:47.088Z,135.00
2023-05-06T05:58:47.108Z,135.00
2023-05-06T05:59:47.113Z,135.00
2023-05-06T06:00:47.081Z,135.00
2023-05-06T06:01:47.297Z,135.00
2023-05-06T06:02:47.130Z,135.00
2023-05-06T06:03:47.154Z,140.62
2023-05-06T06:04:47.137Z,135.00
2023-05-06T06:05:47.014Z,135.00
2023-05-06T06:06:47.392Z,135.00
2023-05-06T06:07:46.977Z,140.62
2023-05-06T06:08:47.021Z,135.00
2023-05-06T06:09:47.015Z,140.62
2023-05-06T06:10:46.960Z,140.62
2023-05-06T06:11:46.968Z,140.62
2023-05-06T06:12:47.003Z,140.62
2023-05-06T06:13:46.964Z,140.62
2023-05-06T06:14:46.931Z,140.62
2023-05-06T06:15:46.965Z,140.62
2023-05-06T06:16:46.959Z,140.62
2023-05-06T06:17:47.011Z,140.62
2023-05-06T06:18:46.909Z,140.62
2023-05-06T06:19:46.877Z,146.25
2023-05-06T06:20:46.887Z,140.62
2023-05-06T06:21:46.859Z,140.62
2023-05-06T06:22:46.828Z,140.62
2023-05-06T06:23:46.858Z,146.25
2023-05-06T06:24:46.805Z,146.25
2023-05-06T06:25:46.841Z,146.25
2023-05-06T06:26:46.784Z,146.25
2023-05-06T06:27:46.788Z,146.25
2023-05-06T06:28:46.786Z,146.25
2023-05-06T06:29:46.762Z,146.25
2023-05-06T06:30:46.745Z,146.25
2023-05-06T06:31:46.788Z,146.25
2023-05-06T06:32:46.786Z,146.25
2023-05-06T06:33:46.745Z,146.25
2023-05-06T06:34:46.694Z,146.25
2023-05-06T06:35:46.668Z,151.88
2023-05-06T06:36:46.658Z,151.88
2023-05-06T06:37:46.662Z,151.88
2023-05-06T06:38:46.663Z,151.88
2023-05-06T06:39:46.641Z,146.25
2023-05-06T06:40:46.646Z,146.25
2023-05-06T06:41:46.611Z,146.25
2023-05-06T06:42:46.647Z,140.62
2023-05-06T06:43:46.614Z,146.25
2023-05-06T06:44:46.630Z,140.62
2023-05-06T06:45:46.675Z,146.25
2023-05-06T06:46:46.547Z,146.25
2023-05-06T06:47:46.589Z,151.88
2023-05-06T06:48:46.565Z,146.25
2023-05-06T06:49:46.565Z,146.25
2023-05-06T06:50:46.862Z,151.88
2023-05-06T06:51:46.490Z,151.88
2023-05-06T06:52:46.491Z,151.88
2023-05-06T06:53:46.521Z,151.88
2023-05-06T06:54:46.486Z,151.88
2023-05-06T06:55:46.469Z,146.25
2023-05-06T06:56:46.464Z,146.25
2023-05-06T06:57:46.475Z,151.88
2023-05-06T06:58:46.450Z,151.88
2023-05-06T06:59:46.867Z,151.88
2023-05-06T07:00:46.451Z,151.88
2023-05-06T07:01:46.446Z,151.88
2023-05-06T07:02:46.399Z,151.88
2023-05-06T07:03:46.370Z,157.50
2023-05-06T07:04:46.466Z,151.88
2023-05-06T07:05:46.393Z,157.50
2023-05-06T07:06:46.336Z,157.50
2023-05-06T07:07:46.321Z,157.50
2023-05-06T07:08:46.347Z,157.50
2023-05-06T07:09:46.329Z,157.50
2023-05-06T07:10:46.306Z,157.50
2023-05-06T07:11:46.291Z,157.50
2023-05-06T07:12:46.330Z,157.50
2023-05-06T07:13:46.266Z,157.50
2023-05-06T07:14:46.260Z,157.50
2023-05-06T07:15:46.248Z,157.50
2023-05-06T07:16:47.688Z,157.50
2023-05-06T07:17:46.239Z,157.50
2023-05-06T07:18:46.220Z,151.88
2023-05-06T07:19:46.193Z,157.50
2023-05-06T07:20:46.175Z,157.50
2023-05-06T07:21:46.266Z,157.50
2023-05-06T07:22:46.152Z,157.50
2023-05-06T07:23:46.165Z,157.50
2023-05-06T07:24:46.141Z,157.50
2023-05-06T07:25:46.105Z,151.88
2023-05-06T07:26:46.091Z,157.50
2023-05-06T07:27:46.098Z,157.50
2023-05-06T07:28:46.115Z,157.50
2023-05-06T07:29:46.081Z,157.50
2023-05-06T07:30:46.148Z,157.50
2023-05-06T07:31:46.054Z,163.12
2023-05-06T07:32:46.133Z,163.12
2023-05-06T07:33:46.051Z,163.12
2023-05-06T07:34:46.008Z,163.12
2023-05-06T07:35:46.015Z,168.75
2023-05-06T07:36:45.998Z,168.75
2023-05-06T07:37:46.078Z,174.38
2023-05-06T07:38:45.985Z,174.38
2023-05-06T07:39:45.972Z,180.00
2023-05-06T07:40:45.953Z,180.00
2023-05-06T07:41:45.960Z,185.62
2023-05-06T07:42:45.951Z,185.62
2023-05-06T07:43:45.933Z,191.25
2023-05-06T07:44:45.951Z,191.25
2023-05-06T07:45:45.875Z,196.88
2023-05-06T07:46:45.956Z,196.88
2023-05-06T07:47:46.015Z,202.50
2023-05-06T07:48:45.873Z,196.88
2023-05-06T07:49:45.849Z,202.50
2023-05-06T07:50:45.865Z,202.50
2023-05-06T07:51:45.831Z,208.12
2023-05-06T07:52:45.862Z,213.75
2023-05-06T07:53:45.928Z,213.75
2023-05-06T07:54:45.789Z,219.38
2023-05-06T07:55:45.783Z,219.38
2023-05-06T07:56:45.770Z,213.75
2023-05-06T07:57:45.787Z,208.12
2023-05-06T07:58:45.764Z,208.12
2023-05-06T07:59:45.744Z,202.50
2023-05-06T08:00:45.710Z,202.50
2023-05-06T08:01:45.768Z,196.88
2023-05-06T08:02:45.760Z,185.62
2023-05-06T08:03:45.934Z,180.00
2023-05-06T08:04:45.747Z,180.00
2023-05-06T08:05:45.676Z,174.38
2023-05-06T08:06:45.679Z,174.38
2023-05-06T08:07:45.697Z,180.00
2023-05-06T08:08:45.636Z,174.38
2023-05-06T08:09:45.712Z,180.00
2023-05-06T08:10:45.623Z,185.62
2023-05-06T08:11:45.580Z,191.25
2023-05-06T08:12:45.723Z,191.25
2023-05-06T08:13:45.583Z,196.88
2023-05-06T08:14:45.585Z,196.88
2023-05-06T08:15:45.574Z,196.88
2023-05-06T08:16:45.575Z,202.50
2023-05-06T08:17:45.595Z,196.88
2023-05-06T08:18:45.513Z,202.50
2023-05-06T08:19:45.528Z,202.50
2023-05-06T08:20:45.495Z,202.50
2023-05-06T08:21:45.480Z,196.88
2023-05-06T08:22:45.511Z,191.25
2023-05-06T08:23:45.490Z,185.62
2023-05-06T08:24:45.451Z,185.62
2023-05-06T08:25:45.462Z,185.62
2023-05-06T08:26:45.441Z,185.62
2023-05-06T08:27:45.435Z,185.62
2023-05-06T08:28:45.438Z,185.62
2023-05-06T08:29:45.396Z,180.00
2023-05-06T08:30:45.407Z,180.00
2023-05-06T08:31:45.416Z,180.00
2023-05-06T08:32:45.425Z,185.62
2023-05-06T08:33:45.340Z,185.62
2023-05-06T08:34:45.368Z,185.62
2023-05-06T08:35:45.340Z,185.62
2023-05-06T08:36:45.343Z,191.25
2023-05-06T08:37:45.309Z,191.25
2023-05-06T08:38:45.288Z,191.25
2023-05-06T08:39:45.315Z,180.00
2023-05-06T08:40:45.409Z,180.00
2023-05-06T08:41:45.944Z,174.38
2023-05-06T08:42:45.282Z,174.38
2023-05-06T08:43:45.366Z,180.00
2023-05-06T08:44:45.304Z,185.62
2023-05-06T08:45:45.339Z,196.88
2023-05-06T08:46:45.213Z,196.88
2023-05-06T08:47:45.425Z,202.50
2023-05-06T08:48:45.183Z,202.50
2023-05-06T08:49:45.173Z,202.50
2023-05-06T08:50:45.160Z,208.12
2023-05-06T08:51:45.142Z,219.38
2023-05-06T08:52:45.124Z,213.75
2023-05-06T08:53:45.138Z,219.38
2023-05-06T08:54:45.149Z,225.00
2023-05-06T08:55:45.109Z,225.00
2023-05-06T08:56:45.120Z,219.38
2023-05-06T08:57:45.254Z,219.38
2023-05-06T08:58:45.108Z,213.75
2023-05-06T08:59:45.069Z,213.75
2023-05-06T09:00:45.110Z,213.75
2023-05-06T09:01:45.205Z,213.75
2023-05-06T09:02:45.084Z,213.75
2023-05-06T09:03:45.030Z,213.75
2023-05-06T09:04:44.985Z,213.75
2023-05-06T09:05:45.026Z,213.75
2023-05-06T09:06:45.000Z,213.75
2023-05-06T09:07:45.013Z,213.75
2023-05-06T09:08:44.980Z,219.38
2023-05-06T09:09:44.953Z,219.38
2023-05-06T09:10:45.026Z,219.38
2023-05-06T09:11:44.928Z,225.00
2023-05-06T09:12:44.994Z,230.62
2023-05-06T09:13:45.079Z,230.62
2023-05-06T09:14:44.883Z,236.25
2023-05-06T09:15:44.902Z,236.25
2023-05-06T09:16:44.927Z,236.25
2023-05-06T09:17:44.905Z,236.25
2023-05-06T09:18:44.827Z,236.25
2023-05-06T09:19:44.841Z,236.25
2023-05-06T09:20:44.848Z,241.88
2023-05-06T09:21:44.819Z,253.12
2023-05-06T09:22:44.902Z,258.75
2023-05-06T09:23:44.779Z,258.75
2023-05-06T09:24:44.783Z,264.38
2023-05-06T09:25:44.784Z,258.75
2023-05-06T09:26:44.765Z,258.75
2023-05-06T09:27:44.747Z,253.12
2023-05-06T09:28:44.799Z,247.50
2023-05-06T09:29:44.817Z,253.12
2023-05-06T09:30:44.739Z,253.12
2023-05-06T09:31:44.729Z,264.38
2023-05-06T09:32:44.735Z,270.00
2023-05-06T09:33:44.671Z,264.38
2023-05-06T09:34:44.659Z,258.75
2023-05-06T09:35:44.667Z,258.75
2023-05-06T09:36:44.659Z,258.75
2023-05-06T09:37:44.629Z,264.38
2023-05-06T09:38:44.631Z,264.38
2023-05-06T09:39:44.604Z,264.38
2023-05-06T09:40:44.625Z,270.00
2023-05-06T09:41:44.588Z,275.62
2023-05-06T09:42:44.586Z,281.25
2023-05-06T09:43:44.557Z,292.50
2023-05-06T09:44:44.566Z,292.50
2023-05-06T09:45:44.645Z,298.12
2023-05-06T09:46:44.657Z,298.12
2023-05-06T09:47:44.585Z,298.12
2023-05-06T09:48:44.513Z,303.75
2023-05-06T09:49:45.388Z,292.50
2023-05-06T09:50:44.499Z,292.50
2023-05-06T09:51:44.475Z,292.50
2023-05-06T09:52:44.524Z,292.50
2023-05-06T09:53:44.462Z,292.50
2023-05-06T09:54:44.450Z,298.12
2023-05-06T09:55:44.431Z,309.38
2023-05-06T09:56:44.415Z,320.62
2023-05-06T09:57:44.419Z,326.25
2023-05-06T09:58:44.430Z,326.25
2023-05-06T09:59:44.410Z,331.88
2023-05-06T10:00:44.402Z,337.50
2023-05-06T10:01:44.406Z,337.50
2023-05-06T10:02:44.572Z,337.50
2023-05-06T10:03:44.558Z,343.12
2023-05-06T10:04:44.547Z,348.75
2023-05-06T10:05:44.311Z,354.38
2023-05-06T10:06:44.327Z,360.00
2023-05-06T10:07:44.331Z,354.38
2023-05-06T10:08:44.324Z,348.75
2023-05-06T10:09:44.291Z,348.75
2023-05-06T10:10:44.255Z,343.12
2023-05-06T10:11:44.245Z,354.38
2023-05-06T10:12:44.310Z,354.38
2023-05-06T10:13:44.244Z,354.38
2023-05-06T10:14:44.221Z,348.75
2023-05-06T10:15:44.249Z,348.75
2023-05-06T10:16:44.317Z,354.38
2023-05-06T10:17:44.316Z,360.00
2023-05-06T10:18:44.193Z,360.00
2023-05-06T10:19:44.167Z,360.00
2023-05-06T10:20:44.151Z,360.00
2023-05-06T10:21:44.162Z,354.38
2023-05-06T10:22:44.128Z,354.38
2023-05-06T10:23:44.137Z,348.75
2023-05-06T10:24:44.108Z,348.75
2023-05-06T10:25:44.082Z,343.12
2023-05-06T10:26:44.123Z,343.12
2023-05-06T10:27:44.089Z,343.12
2023-05-06T10:28:44.081Z,343.12
2023-05-06T10:29:44.048Z,343.12
2023-05-06T10:30:44.091Z,337.50
2023-05-06T10:31:44.222Z,348.75
2023-05-06T10:32:44.043Z,360.00
2023-05-06T10:33:44.134Z,360.00
2023-05-06T10:34:44.019Z,360.00
2023-05-06T10:35:43.994Z,371.25
2023-05-06T10:36:43.990Z,365.62
2023-05-06T10:37:43.973Z,365.62
2023-05-06T10:38:43.974Z,360.00
2023-05-06T10:39:43.936Z,354.38
2023-05-06T10:40:43.947Z,348.75
2023-05-06T10:41:43.937Z,348.75
2023-05-06T10:42:43.908Z,348.75
2023-05-06T10:43:43.903Z,348.75
2023-05-06T10:44:45.644Z,354.38
2023-05-06T10:45:43.895Z,360.00
2023-05-06T10:46:43.876Z,360.00
2023-05-06T10:47:43.889Z,360.00
2023-05-06T10:48:43.877Z,360.00
2023-05-06T10:49:43.984Z,360.00
2023-05-06T10:50:45.648Z,360.00
2023-05-06T10:51:43.811Z,360.00
2023-05-06T10:52:43.886Z,371.25
2023-05-06T10:53:43.776Z,376.88
2023-05-06T10:54:43.772Z,382.50
2023-05-06T10:55:43.783Z,388.12
2023-05-06T10:56:45.829Z,393.75
2023-05-06T10:57:43.748Z,399.38
2023-05-06T10:58:43.775Z,399.38
2023-05-06T10:59:43.704Z,399.38
2023-05-06T11:00:43.767Z,382.50
2023-05-06T11:01:43.720Z,399.38
2023-05-06T11:02:46.122Z,399.38
2023-05-06T11:03:43.744Z,416.25
2023-05-06T11:04:43.724Z,382.50
2023-05-06T11:05:43.781Z,393.75
2023-05-06T11:06:43.658Z,382.50
2023-05-06T11:07:43.628Z,382.50
2023-05-06T11:08:45.311Z,388.12
2023-05-06T11:09:43.626Z,382.50
2023-05-06T11:10:43.652Z,382.50
2023-05-06T11:11:43.575Z,393.75
2023-05-06T11:12:43.656Z,371.25
2023-05-06T11:13:43.561Z,365.62
2023-05-06T11:14:43.575Z,371.25
2023-05-06T11:15:43.550Z,376.88
2023-05-06T11:16:43.617Z,376.88
2023-05-06T11:17:43.546Z,393.75
2023-05-06T11:18:43.537Z,388.12
2023-05-06T11:19:43.518Z,360.00
2023-05-06T11:20:43.488Z,348.75
2023-05-06T11:21:43.494Z,343.12
2023-05-06T11:22:43.478Z,343.12
2023-05-06T11:23:43.471Z,354.38
2023-05-06T11:24:43.469Z,365.62
2023-05-06T11:25:43.448Z,371.25
2023-05-06T11:26:43.429Z,376.88
2023-05-06T11:27:43.430Z,376.88
2023-05-06T11:28:43.424Z,371.25
2023-05-06T11:29:43.394Z,365.62
2023-05-06T11:30:43.422Z,371.25
2023-05-06T11:31:43.406Z,393.75
2023-05-06T11:32:43.465Z,388.12
2023-05-06T11:33:43.399Z,393.75
2023-05-06T11:34:43.358Z,393.75
2023-05-06T11:35:43.327Z,399.38
2023-05-06T11:36:43.323Z,393.75
2023-05-06T11:37:43.432Z,399.38
2023-05-06T11:38:43.315Z,405.00
2023-05-06T11:39:43.301Z,410.62
2023-05-06T11:40:43.249Z,410.62
2023-05-06T11:41:43.265Z,405.00
2023-05-06T11:42:43.277Z,399.38
2023-05-06T11:43:43.890Z,393.75
2023-05-06T11:44:43.243Z,388.12
2023-05-06T11:45:43.215Z,382.50
2023-05-06T11:46:43.406Z,376.88
2023-05-06T11:47:43.236Z,376.88
2023-05-06T11:48:43.177Z,371.25
2023-05-06T11:49:43.189Z,371.25
2023-05-06T11:50:43.215Z,382.50
2023-05-06T11:51:43.161Z,399.38
2023-05-06T11:52:43.157Z,405.00
2023-05-06T11:53:43.136Z,421.88
2023-05-06T11:54:43.121Z,433.12
2023-05-06T11:55:43.082Z,433.12
2023-05-06T11:56:43.124Z,438.75
2023-05-06T11:57:43.101Z,421.88
2023-05-06T11:58:43.400Z,433.12
2023-05-06T11:59:43.033Z,433.12
2023-05-06T12:00:43.046Z,433.12
2023-05-06T12:01:43.026Z,438.75
2023-05-06T12:02:43.149Z,444.38
2023-05-06T12:03:43.204Z,438.75
2023-05-06T12:04:42.992Z,438.75
2023-05-06T12:05:43.036Z,455.62
2023-05-06T12:06:42.975Z,455.62
2023-05-06T12:07:42.998Z,466.88
2023-05-06T12:08:42.973Z,472.50
2023-05-06T12:09:43.057Z,466.88
2023-05-06T12:10:42.929Z,444.38
2023-05-06T12:11:44.381Z,433.12
2023-05-06T12:12:43.024Z,427.50
2023-05-06T12:13:42.917Z,438.75
2023-05-06T12:14:42.878Z,483.75
2023-05-06T12:15:42.879Z,483.75
2023-05-06T12:16:42.884Z,461.25
2023-05-06T12:17:42.907Z,483.75
2023-05-06T12:18:42.823Z,489.38
2023-05-06T12:19:42.822Z,483.75
2023-05-06T12:20:42.801Z,489.38
2023-05-06T12:21:42.818Z,495.00
2023-05-06T12:22:42.852Z,495.00
2023-05-06T12:23:42.780Z,500.62
2023-05-06T12:24:42.837Z,506.25
2023-05-06T12:25:42.794Z,511.88
2023-05-06T12:26:42.794Z,517.50
2023-05-06T12:27:42.732Z,517.50
2023-05-06T12:28:42.715Z,523.12
2023-05-06T12:29:42.704Z,517.50
2023-05-06T12:30:42.744Z,517.50
2023-05-06T12:31:42.735Z,511.88
2023-05-06T12:32:42.731Z,523.12
2023-05-06T12:33:42.654Z,517.50
2023-05-06T12:34:42.665Z,506.25
2023-05-06T12:35:42.687Z,483.75
2023-05-06T12:36:42.655Z,483.75
2023-05-06T12:37:42.612Z,489.38
2023-05-06T12:38:42.800Z,495.00
2023-05-06T12:39:42.644Z,500.62
2023-05-06T12:40:42.608Z,500.62
2023-05-06T12:41:43.511Z,511.88
2023-05-06T12:42:42.583Z,517.50
2023-05-06T12:43:42.570Z,528.75
2023-05-06T12:44:42.592Z,540.00
2023-05-06T12:45:42.573Z,540.00
2023-05-06T12:46:42.523Z,534.38